Time;durP1;ratioP1;P1;durP2;ratioP2;P2;SDS_P1;SDS_P2;PMS_P1;PMS_P2;Temp;Humidity;BMP_temperature;BMP_pressure;BME280_temperature;BME280_humidity;BME280_pressure;Samples;Min_cycle;Max_cycle;Signal;HPM_P1;HPM_P2
2023/06/19 00:01:43;;;;;;;;;;;20.30;70.60;;;;;;5047752;28;899;-68
2023/06/19 00:04:09;;;;;;;;;;;20.30;70.60;;;;;;5046749;28;1264;-68
2023/06/19 00:06:34;;;;;;;;;;;20.30;70.60;;;;;;5047962;28;1252;-68
2023/06/19 00:09:00;;;;;;;;;;;20.30;70.60;;;;;;5045624;28;860;-68
2023/06/19 00:11:25;;;;;;;;;;;20.30;70.60;;;;;;5048251;28;868;-68
2023/06/19 00:13:51;;;;;;;;;;;20.30;70.60;;;;;;5048186;28;822;-68
2023/06/19 00:16:16;;;;;;;;;;;20.30;70.60;;;;;;5046929;28;1898;-68
2023/06/19 00:18:42;;;;;;;;;;;20.30;70.60;;;;;;5047076;28;888;-68
2023/06/19 00:21:07;;;;;;;;;;;20.30;70.60;;;;;;5037601;28;821;-68
2023/06/19 00:23:34;;;;;;;;;;;20.30;70.60;;;;;;5044260;28;855;-68
2023/06/19 00:26:01;;;;;;;;;;;20.30;70.60;;;;;;5048099;28;1241;-68
2023/06/19 00:28:29;;;;;;;;;;;20.30;70.60;;;;;;5046788;28;1363;-68
2023/06/19 00:30:54;;;;;;;;;;;20.30;70.60;;;;;;5046480;28;1000;-68
2023/06/19 00:33:20;;;;;;;;;;;20.30;70.70;;;;;;5045925;28;972;-67
2023/06/19 00:35:45;;;;;;;;;;;20.30;70.60;;;;;;5043070;28;1346;-68
2023/06/19 00:38:11;;;;;;;;;;;20.30;70.70;;;;;;5046617;28;1918;-68
2023/06/19 00:40:37;;;;;;;;;;;20.30;70.60;;;;;;5047136;28;863;-68
2023/06/19 00:43:02;;;;;;;;;;;20.30;70.60;;;;;;5047057;28;1374;-67
2023/06/19 00:45:28;;;;;;;;;;;20.30;70.70;;;;;;5047842;28;1256;-68
2023/06/19 00:47:54;;;;;;;;;;;20.30;70.70;;;;;;5045398;28;829;-68
2023/06/19 00:50:20;;;;;;;;;;;20.30;70.70;;;;;;5046545;28;917;-68
2023/06/19 00:52:45;;;;;;;;;;;20.30;70.70;;;;;;5043500;28;875;-68
2023/06/19 00:55:11;;;;;;;;;;;20.30;70.70;;;;;;5044003;28;1357;-67
2023/06/19 00:57:36;;;;;;;;;;;20.30;70.70;;;;;;5048128;28;1969;-68
2023/06/19 01:00:05;;;;;;;;;;;20.20;71.40;;;;;;5046621;28;930;-68
2023/06/19 01:02:30;;;;;;;;;;;20.30;70.70;;;;;;5049039;28;954;-68
2023/06/19 01:04:56;;;;;;;;;;;20.30;70.80;;;;;;5050956;28;1804;-68
2023/06/19 01:07:45;;;;;;;;;;;20.30;70.70;;;;;;5051363;28;918;-68
2023/06/19 01:10:14;;;;;;;;;;;20.30;70.80;;;;;;5023159;28;1126;-68
2023/06/19 01:12:44;;;;;;;;;;;20.30;70.70;;;;;;5051128;28;872;-68
2023/06/19 01:15:09;;;;;;;;;;;20.30;70.70;;;;;;5051729;28;1265;-67
2023/06/19 01:17:35;;;;;;;;;;;20.30;70.70;;;;;;5047307;28;1984;-68
2023/06/19 01:20:06;;;;;;;;;;;20.30;70.70;;;;;;5050426;28;879;-68
2023/06/19 01:22:31;;;;;;;;;;;20.30;70.80;;;;;;5050442;28;856;-68
2023/06/19 01:24:57;;;;;;;;;;;20.30;70.70;;;;;;5051225;28;1326;-68
2023/06/19 01:27:23;;;;;;;;;;;20.30;70.70;;;;;;5046840;28;1048;-68
2023/06/19 01:29:48;;;;;;;;;;;20.30;70.80;;;;;;5035589;28;1541;-68
2023/06/19 01:32:15;;;;;;;;;;;20.30;70.80;;;;;;5048591;28;904;-68
2023/06/19 01:34:40;;;;;;;;;;;20.30;70.80;;;;;;5051453;28;1227;-68
2023/06/19 01:37:06;;;;;;;;;;;20.30;70.80;;;;;;5044566;28;1953;-68
2023/06/19 01:39:31;;;;;;;;;;;20.30;70.80;;;;;;5049240;28;1011;-68
2023/06/19 01:41:57;;;;;;;;;;;20.30;70.80;;;;;;5049442;28;1260;-68
2023/06/19 01:44:22;;;;;;;;;;;20.30;70.80;;;;;;5051891;28;1857;-68
2023/06/19 01:46:49;;;;;;;;;;;20.30;70.80;;;;;;5052370;28;876;-68
2023/06/19 01:49:14;;;;;;;;;;;20.30;70.80;;;;;;5048503;28;832;-68
2023/06/19 01:51:40;;;;;;;;;;;20.30;70.80;;;;;;5050489;28;812;-68
2023/06/19 01:54:06;;;;;;;;;;;20.30;70.80;;;;;;5051318;28;1288;-67
2023/06/19 01:56:32;;;;;;;;;;;20.30;71.60;;;;;;5049168;28;1965;-67
2023/06/19 01:58:57;;;;;;;;;;;20.30;70.80;;;;;;5045500;28;884;-68
2023/06/19 02:01:22;;;;;;;;;;;20.30;70.80;;;;;;5051464;28;924;-68
2023/06/19 02:03:48;;;;;;;;;;;20.30;70.80;;;;;;5049578;28;926;-68
2023/06/19 02:06:13;;;;;;;;;;;20.30;70.80;;;;;;5050724;28;1272;-67
2023/06/19 02:08:39;;;;;;;;;;;20.30;70.80;;;;;;5048652;28;836;-68
2023/06/19 02:11:04;;;;;;;;;;;20.30;70.80;;;;;;5050816;28;816;-68
2023/06/19 02:13:30;;;;;;;;;;;20.30;70.80;;;;;;5046755;28;1426;-68
2023/06/19 02:15:55;;;;;;;;;;;20.30;70.80;;;;;;5045876;28;1242;-68
2023/06/19 02:18:21;;;;;;;;;;;20.30;70.80;;;;;;5045260;28;1910;-68
2023/06/19 02:20:47;;;;;;;;;;;20.30;70.90;;;;;;5050319;28;887;-68
2023/06/19 02:23:12;;;;;;;;;;;20.30;70.90;;;;;;5050031;28;804;-68
2023/06/19 02:25:37;;;;;;;;;;;20.30;70.90;;;;;;5049822;28;1339;-68
2023/06/19 02:28:03;;;;;;;;;;;20.30;70.90;;;;;;5050496;28;1474;-68
2023/06/19 02:30:29;;;;;;;;;;;20.20;70.80;;;;;;5049090;28;898;-68
2023/06/19 02:32:54;;;;;;;;;;;20.20;70.80;;;;;;5051220;28;907;-68
2023/06/19 02:35:20;;;;;;;;;;;20.30;70.90;;;;;;5038314;28;1268;-68
2023/06/19 02:37:47;;;;;;;;;;;20.20;70.80;;;;;;5049384;28;1977;-67
2023/06/19 02:40:12;;;;;;;;;;;20.30;70.90;;;;;;5049809;28;839;-68
2023/06/19 02:42:38;;;;;;;;;;;20.20;70.80;;;;;;5048142;28;1339;-68
2023/06/19 02:45:03;;;;;;;;;;;20.30;70.90;;;;;;5048789;28;1294;-68
2023/06/19 02:47:30;;;;;;;;;;;20.20;70.80;;;;;;5035747;28;875;-68
2023/06/19 02:49:56;;;;;;;;;;;20.30;70.90;;;;;;5049152;28;891;-67
2023/06/19 02:52:22;;;;;;;;;;;20.20;70.90;;;;;;5047997;28;910;-68
2023/06/19 02:54:47;;;;;;;;;;;20.20;70.80;;;;;;5046777;28;1234;-69
2023/06/19 02:57:13;;;;;;;;;;;20.20;70.80;;;;;;5049556;28;1914;-69
2023/06/19 02:59:38;;;;;;;;;;;20.20;70.80;;;;;;5049325;28;1085;-69
2023/06/19 03:02:04;;;;;;;;;;;20.30;70.90;;;;;;5049004;28;876;-67
2023/06/19 03:04:29;;;;;;;;;;;20.20;70.80;;;;;;5048303;28;1365;-69
2023/06/19 03:06:55;;;;;;;;;;;20.20;70.80;;;;;;5049928;28;789;-69
2023/06/19 03:09:20;;;;;;;;;;;20.30;70.90;;;;;;5048413;28;1215;-68
2023/06/19 03:11:46;;;;;;;;;;;20.30;70.90;;;;;;5045054;28;921;-69
2023/06/19 03:14:11;;;;;;;;;;;20.30;70.90;;;;;;5050129;28;1326;-69
2023/06/19 03:16:36;;;;;;;;;;;20.30;70.90;;;;;;5049232;28;1969;-69
2023/06/19 03:19:02;;;;;;;;;;;20.20;70.90;;;;;;5050116;28;887;-67
2023/06/19 03:21:27;;;;;;;;;;;20.20;70.90;;;;;;5050243;28;804;-70
2023/06/19 03:23:53;;;;;;;;;;;20.30;70.90;;;;;;5047624;28;876;-69
2023/06/19 03:26:19;;;;;;;;;;;20.30;70.90;;;;;;5042891;28;1229;-69
2023/06/19 03:28:46;;;;;;;;;;;20.30;71.00;;;;;;5046106;28;1398;-68
2023/06/19 03:31:11;;;;;;;;;;;20.30;71.00;;;;;;5046389;28;905;-69
2023/06/19 03:33:37;;;;;;;;;;;20.30;71.00;;;;;;5045330;28;861;-68
2023/06/19 03:36:03;;;;;;;;;;;20.20;70.90;;;;;;5049531;28;1272;-68
2023/06/19 03:38:28;;;;;;;;;;;20.30;71.00;;;;;;5046696;28;1978;-68
2023/06/19 03:40:54;;;;;;;;;;;20.20;70.90;;;;;;5044460;28;1078;-68
2023/06/19 03:43:19;;;;;;;;;;;20.20;70.90;;;;;;5049443;28;944;-68
2023/06/19 03:45:45;;;;;;;;;;;20.30;71.00;;;;;;5048708;28;1272;-68
2023/06/19 03:48:10;;;;;;;;;;;20.30;71.00;;;;;;5048795;28;887;-68
2023/06/19 03:50:36;;;;;;;;;;;20.20;70.90;;;;;;5048816;28;1420;-68
2023/06/19 03:53:01;;;;;;;;;;;20.30;71.00;;;;;;5047663;28;902;-68
2023/06/19 03:55:26;;;;;;;;;;;20.20;70.90;;;;;;5048314;28;1370;-68
2023/06/19 03:57:52;;;;;;;;;;;20.20;70.90;;;;;;5048664;28;1914;-68
2023/06/19 04:00:18;;;;;;;;;;;20.30;71.00;;;;;;5044628;28;863;-68
2023/06/19 04:02:46;;;;;;;;;;;20.30;71.00;;;;;;5046577;28;755;-68
2023/06/19 04:05:11;;;;;;;;;;;20.20;70.90;;;;;;5046334;28;1350;-68
2023/06/19 04:07:37;;;;;;;;;;;20.20;71.00;;;;;;5041510;28;921;-68
2023/06/19 04:10:02;;;;;;;;;;;20.20;70.90;;;;;;5047190;28;876;-69
2023/06/19 04:12:28;;;;;;;;;;;20.20;70.90;;;;;;5040068;28;830;-68
2023/06/19 04:14:54;;;;;;;;;;;20.20;70.90;;;;;;5048710;28;1668;-68
2023/06/19 04:17:19;;;;;;;;;;;20.20;70.90;;;;;;5048800;28;1960;-68
2023/06/19 04:19:45;;;;;;;;;;;20.20;70.90;;;;;;5046198;28;876;-68
2023/06/19 04:22:10;;;;;;;;;;;20.20;71.00;;;;;;5048343;28;918;-68
2023/06/19 04:24:36;;;;;;;;;;;20.20;71.00;;;;;;5045423;28;1253;-68
2023/06/19 04:27:01;;;;;;;;;;;20.20;71.00;;;;;;5047252;28;1001;-68
2023/06/19 04:29:31;;;;;;;;;;;20.20;71.00;;;;;;5048644;28;1069;-68
2023/06/19 04:32:00;;;;;;;;;;;20.20;71.00;;;;;;5045393;28;836;-68
2023/06/19 04:34:25;;;;;;;;;;;20.20;71.00;;;;;;5046891;28;1274;-68
2023/06/19 04:36:51;;;;;;;;;;;20.20;71.00;;;;;;5050879;28;1906;-68
2023/06/19 04:39:16;;;;;;;;;;;20.30;71.00;;;;;;5052545;28;921;-68
2023/06/19 04:41:45;;;;;;;;;;;20.20;71.00;;;;;;5051176;28;1709;-68
2023/06/19 04:44:13;;;;;;;;;;;20.20;71.00;;;;;;5049862;28;1381;-67
2023/06/19 04:46:38;;;;;;;;;;;20.20;71.00;;;;;;5052377;28;906;-68
2023/06/19 04:49:04;;;;;;;;;;;20.20;71.00;;;;;;5048694;28;832;-68
2023/06/19 04:51:33;;;;;;;;;;;20.20;71.00;;;;;;5049587;28;857;-68
2023/06/19 04:53:59;;;;;;;;;;;20.20;71.00;;;;;;5050183;28;1098;-68
2023/06/19 04:56:24;;;;;;;;;;;20.20;71.00;;;;;;5048927;28;1919;-67
2023/06/19 04:58:51;;;;;;;;;;;20.20;71.00;;;;;;5051512;28;974;-68
2023/06/19 05:01:16;;;;;;;;;;;20.20;71.00;;;;;;5051932;28;888;-68
2023/06/19 05:03:43;;;;;;;;;;;20.20;71.00;;;;;;5052078;28;900;-69
2023/06/19 05:06:09;;;;;;;;;;;20.20;71.00;;;;;;5049106;28;1291;-68
2023/06/19 05:08:34;;;;;;;;;;;20.20;71.00;;;;;;5052510;28;967;-68
2023/06/19 05:11:00;;;;;;;;;;;20.20;71.00;;;;;;5051204;28;1058;-68
2023/06/19 05:13:25;;;;;;;;;;;20.20;71.00;;;;;;5051104;28;867;-68
2023/06/19 05:15:51;;;;;;;;;;;20.20;71.00;;;;;;5051960;28;1270;-68
2023/06/19 05:18:16;;;;;;;;;;;20.20;71.10;;;;;;5050708;28;1952;-68
2023/06/19 05:20:42;;;;;;;;;;;20.20;71.00;;;;;;5049586;28;939;-68
2023/06/19 05:23:07;;;;;;;;;;;20.20;71.10;;;;;;5050127;28;934;-68
2023/06/19 05:25:33;;;;;;;;;;;20.20;71.00;;;;;;5052764;28;1245;-68
2023/06/19 05:27:58;;;;;;;;;;;20.20;71.00;;;;;;5051570;28;1174;-68
2023/06/19 05:30:24;;;;;;;;;;;20.20;71.10;;;;;;5052779;28;1015;-68
2023/06/19 05:32:49;;;;;;;;;;;20.20;71.00;;;;;;5051449;28;970;-68
2023/06/19 05:35:15;;;;;;;;;;;20.20;71.10;;;;;;5049092;28;1278;-68
2023/06/19 05:37:43;;;;;;;;;;;20.20;71.00;;;;;;5049871;28;1901;-68
2023/06/19 05:40:09;;;;;;;;;;;20.20;71.00;;;;;;5049404;28;887;-68
2023/06/19 05:42:35;;;;;;;;;;;20.20;71.00;;;;;;5050146;28;1523;-68
2023/06/19 05:45:01;;;;;;;;;;;20.20;71.00;;;;;;5050938;28;1263;-68
2023/06/19 05:47:28;;;;;;;;;;;20.20;71.10;;;;;;5050518;28;919;-69
2023/06/19 05:49:54;;;;;;;;;;;20.20;71.00;;;;;;5046380;28;842;-69
2023/06/19 05:52:19;;;;;;;;;;;20.20;70.80;;;;;;5048847;28;816;-68
2023/06/19 05:54:45;;;;;;;;;;;20.20;70.70;;;;;;5050395;28;1380;-68
2023/06/19 05:57:11;;;;;;;;;;;20.20;70.80;;;;;;5050683;28;1909;-69
2023/06/19 05:59:36;;;;;;;;;;;20.20;70.80;;;;;;5049173;28;947;-68
2023/06/19 06:02:03;;;;;;;;;;;20.20;70.80;;;;;;5050008;28;884;-69
2023/06/19 06:04:28;;;;;;;;;;;20.30;70.90;;;;;;5050245;28;1258;-68
2023/06/19 06:06:54;;;;;;;;;;;20.30;71.00;;;;;;5051314;28;1176;-69
2023/06/19 06:09:19;;;;;;;;;;;20.30;70.90;;;;;;5050652;28;893;-68
2023/06/19 06:11:45;;;;;;;;;;;20.20;70.90;;;;;;5049779;28;965;-69
2023/06/19 06:14:10;;;;;;;;;;;20.20;71.00;;;;;;5044831;28;1926;-68
2023/06/19 06:16:36;;;;;;;;;;;20.20;71.00;;;;;;5049052;28;1894;-66
2023/06/19 06:19:01;;;;;;;;;;;20.20;71.00;;;;;;5049603;28;978;-67
2023/06/19 06:21:27;;;;;;;;;;;20.20;71.00;;;;;;5042727;28;946;-67
2023/06/19 06:23:54;;;;;;;;;;;20.20;71.10;;;;;;5045851;28;864;-69
2023/06/19 06:26:19;;;;;;;;;;;20.30;71.20;;;;;;5044163;28;1353;-68
2023/06/19 06:28:45;;;;;;;;;;;20.20;71.20;;;;;;5048179;28;1350;-69
2023/06/19 06:31:10;;;;;;;;;;;20.20;71.20;;;;;;5051181;28;825;-69
2023/06/19 06:33:35;;;;;;;;;;;20.20;71.10;;;;;;5051169;28;819;-68
2023/06/19 06:36:01;;;;;;;;;;;20.20;71.10;;;;;;5047297;28;1360;-71
2023/06/19 06:38:26;;;;;;;;;;;20.20;71.10;;;;;;5048925;28;1906;-70
2023/06/19 06:40:52;;;;;;;;;;;20.20;71.10;;;;;;5049499;28;934;-71
2023/06/19 06:43:17;;;;;;;;;;;20.20;71.10;;;;;;5047409;28;1015;-71
2023/06/19 06:45:43;;;;;;;;;;;20.20;71.10;;;;;;5049818;28;1334;-69
2023/06/19 06:48:08;;;;;;;;;;;20.20;71.10;;;;;;5046599;28;838;-67
2023/06/19 06:50:34;;;;;;;;;;;20.20;71.10;;;;;;5044692;28;875;-68
2023/06/19 06:52:59;;;;;;;;;;;20.20;71.00;;;;;;5047413;28;1406;-67
2023/06/19 06:55:25;;;;;;;;;;;20.20;71.00;;;;;;5048146;28;1412;-68
2023/06/19 06:57:50;;;;;;;;;;;20.20;71.00;;;;;;5049080;28;1886;-67
2023/06/19 07:00:18;;;;;;;;;;;20.30;71.20;;;;;;5048189;28;843;-67
2023/06/19 07:02:43;;;;;;;;;;;20.30;71.70;;;;;;5049923;28;912;-68
2023/06/19 07:05:09;;;;;;;;;;;20.30;71.90;;;;;;5049787;28;1302;-68
2023/06/19 07:07:34;;;;;;;;;;;20.40;72.00;;;;;;5047960;28;892;-68
2023/06/19 07:10:00;;;;;;;;;;;20.40;72.00;;;;;;5048478;28;1066;-67
2023/06/19 07:12:25;;;;;;;;;;;20.50;72.10;;;;;;5048737;28;899;-68
2023/06/19 07:14:53;;;;;;;;;;;20.50;71.90;;;;;;5048876;28;1279;-67
2023/06/19 07:17:18;;;;;;;;;;;20.50;71.70;;;;;;5047037;28;1886;-67
2023/06/19 07:19:44;;;;;;;;;;;20.50;71.60;;;;;;5049585;28;932;-68
2023/06/19 07:22:09;;;;;;;;;;;20.50;71.60;;;;;;5045643;28;891;-68
2023/06/19 07:24:35;;;;;;;;;;;20.50;71.70;;;;;;5048069;28;1327;-67
2023/06/19 07:27:00;;;;;;;;;;;20.50;71.70;;;;;;5047615;28;1445;-68
2023/06/19 07:29:26;;;;;;;;;;;20.50;71.80;;;;;;5049364;28;907;-67
2023/06/19 07:31:52;;;;;;;;;;;20.50;72.30;;;;;;5048041;28;883;-68
2023/06/19 07:34:17;;;;;;;;;;;20.50;73.00;;;;;;5047583;28;1242;-67
2023/06/19 07:36:43;;;;;;;;;;;20.50;72.80;;;;;;5046744;28;1965;-67
2023/06/19 07:39:08;;;;;;;;;;;20.60;73.00;;;;;;5045212;28;920;-68
2023/06/19 07:41:34;;;;;;;;;;;20.60;73.00;;;;;;5048730;28;1279;-67
2023/06/19 07:43:59;;;;;;;;;;;20.60;73.00;;;;;;5049026;28;1045;-67
2023/06/19 07:46:25;;;;;;;;;;;20.60;73.10;;;;;;5048749;28;1306;-68
2023/06/19 07:48:50;;;;;;;;;;;20.60;73.10;;;;;;5047778;28;876;-68
2023/06/19 07:51:16;;;;;;;;;;;20.60;73.20;;;;;;5046562;28;963;-67
2023/06/19 07:53:43;;;;;;;;;;;20.60;73.20;;;;;;5047816;28;894;-68
2023/06/19 07:56:09;;;;;;;;;;;20.60;73.20;;;;;;5048981;28;1233;-67
2023/06/19 07:58:34;;;;;;;;;;;20.60;73.70;;;;;;5047924;28;1914;-67
2023/06/19 08:01:00;;;;;;;;;;;20.70;74.70;;;;;;5048220;28;908;-67
2023/06/19 08:03:25;;;;;;;;;;;20.70;74.70;;;;;;5042489;28;883;-67
2023/06/19 08:05:51;;;;;;;;;;;20.60;74.50;;;;;;5044510;28;1281;-67
2023/06/19 08:08:16;;;;;;;;;;;20.70;74.30;;;;;;5044932;28;827;-67
2023/06/19 08:10:42;;;;;;;;;;;20.70;74.30;;;;;;5045962;28;804;-67
2023/06/19 08:13:07;;;;;;;;;;;20.70;74.40;;;;;;5048610;28;860;-68
2023/06/19 08:15:33;;;;;;;;;;;20.70;74.30;;;;;;5048084;28;1314;-68
2023/06/19 08:17:58;;;;;;;;;;;20.70;74.30;;;;;;5047547;28;1906;-67
2023/06/19 08:20:24;;;;;;;;;;;20.70;74.30;;;;;;5043134;28;812;-68
2023/06/19 08:22:49;;;;;;;;;;;20.70;74.40;;;;;;5046656;28;927;-68
2023/06/19 08:25:15;;;;;;;;;;;20.70;74.70;;;;;;5048790;28;1231;-67
2023/06/19 08:27:40;;;;;;;;;;;20.70;74.90;;;;;;5048631;28;1399;-67
2023/06/19 08:30:06;;;;;;;;;;;20.70;75.00;;;;;;5047677;28;870;-67
2023/06/19 08:32:33;;;;;;;;;;;20.80;74.90;;;;;;5047514;28;847;-67
2023/06/19 08:34:58;;;;;;;;;;;20.80;74.90;;;;;;5040047;28;1681;-67
2023/06/19 08:37:23;;;;;;;;;;;20.80;74.80;;;;;;5047834;28;1905;-67
2023/06/19 08:39:49;;;;;;;;;;;20.80;74.70;;;;;;5047864;28;1316;-67
2023/06/19 08:42:14;;;;;;;;;;;20.80;74.60;;;;;;5045283;28;837;-67
2023/06/19 08:44:40;;;;;;;;;;;20.90;74.50;;;;;;5048737;28;1247;-67
2023/06/19 08:47:06;;;;;;;;;;;20.90;74.40;;;;;;5048591;28;884;-67
2023/06/19 08:49:33;;;;;;;;;;;20.90;74.20;;;;;;5048837;28;929;-67
2023/06/19 08:51:59;;;;;;;;;;;20.90;74.30;;;;;;5049057;28;829;-67
2023/06/19 08:54:25;;;;;;;;;;;20.90;74.40;;;;;;5047923;28;1333;-67
2023/06/19 08:56:53;;;;;;;;;;;20.90;74.40;;;;;;5045321;28;1906;-67
2023/06/19 08:59:18;;;;;;;;;;;20.90;74.30;;;;;;5046292;28;852;-67
2023/06/19 09:01:51;;;;;;;;;;;20.90;74.30;;;;;;5048152;28;946;-67
2023/06/19 09:04:17;;;;;;;;;;;20.90;74.20;;;;;;5047186;28;1356;-67
2023/06/19 09:06:49;;;;;;;;;;;20.90;74.30;;;;;;5043577;28;920;-67
2023/06/19 09:09:15;;;;;;;;;;;20.90;74.40;;;;;;5045264;28;797;-67
2023/06/19 09:11:43;;;;;;;;;;;20.90;75.20;;;;;;5048175;28;1014;-68
2023/06/19 09:14:10;;;;;;;;;;;20.90;74.70;;;;;;5048476;28;1225;-68
2023/06/19 09:16:41;;;;;;;;;;;20.90;75.60;;;;;;5047869;28;1972;-67
2023/06/19 09:19:07;;;;;;;;;;;20.90;75.60;;;;;;5047600;28;1022;-68
2023/06/19 09:21:34;;;;;;;;;;;20.90;76.30;;;;;;5048104;28;852;-67
2023/06/19 09:24:07;;;;;;;;;;;20.90;76.30;;;;;;5060395;28;1085;-67
2023/06/19 09:26:32;;;;;;;;;;;21.00;76.20;;;;;;5046798;28;863;-67
2023/06/19 09:28:58;;;;;;;;;;;21.00;75.90;;;;;;5050122;28;1458;-66
2023/06/19 09:31:33;;;;;;;;;;;20.90;75.60;;;;;;5051089;28;855;-68
2023/06/19 09:33:59;;;;;;;;;;;20.90;75.40;;;;;;5049230;28;816;-68
2023/06/19 09:36:24;;;;;;;;;;;21.00;75.40;;;;;;5050288;28;1275;-67
2023/06/19 09:38:49;;;;;;;;;;;20.90;75.40;;;;;;5050441;28;1981;-67
2023/06/19 09:41:15;;;;;;;;;;;21.00;76.00;;;;;;5040337;28;1265;-67
2023/06/19 09:43:42;;;;;;;;;;;21.00;75.90;;;;;;5048138;28;876;-66
2023/06/19 09:46:07;;;;;;;;;;;21.00;76.20;;;;;;5050455;28;1216;-68
2023/06/19 09:48:34;;;;;;;;;;;21.00;76.20;;;;;;5048628;28;855;-67
2023/06/19 09:51:10;;;;;;;;;;;21.00;76.10;;;;;;5045434;28;2175;-67
2023/06/19 09:53:36;;;;;;;;;;;21.00;76.10;;;;;;5049385;28;1329;-67
2023/06/19 09:56:01;;;;;;;;;;;21.00;76.00;;;;;;5033616;28;1534;-67
2023/06/19 09:58:27;;;;;;;;;;;21.00;76.00;;;;;;5048458;28;1942;-66
2023/06/19 10:00:54;;;;;;;;;;;21.00;75.80;;;;;;5045690;28;905;-67
2023/06/19 10:03:20;;;;;;;;;;;21.00;76.40;;;;;;5048745;28;907;-68
2023/06/19 10:05:46;;;;;;;;;;;21.00;76.70;;;;;;5046491;28;1276;-68
2023/06/19 10:08:12;;;;;;;;;;;21.00;76.70;;;;;;5047792;28;840;-67
2023/06/19 10:10:45;;;;;;;;;;;21.10;76.50;;;;;;5045845;28;860;-68
2023/06/19 10:13:16;;;;;;;;;;;21.10;76.10;;;;;;5050055;28;879;-68
2023/06/19 10:15:42;;;;;;;;;;;21.10;75.80;;;;;;5050603;28;1319;-68
2023/06/19 10:18:09;;;;;;;;;;;21.10;75.80;;;;;;5049280;28;1902;-68
2023/06/19 10:20:38;;;;;;;;;;;21.10;75.70;;;;;;5044331;28;1726;-68
2023/06/19 10:23:07;;;;;;;;;;;21.10;75.60;;;;;;5046307;28;830;-67
2023/06/19 10:25:33;;;;;;;;;;;21.00;75.60;;;;;;5040378;28;1337;-67
2023/06/19 10:27:59;;;;;;;;;;;21.00;75.50;;;;;;5045548;28;2520;-68
2023/06/19 10:30:24;;;;;;;;;;;21.00;75.50;;;;;;5052161;28;1217;-68
2023/06/19 10:32:50;;;;;;;;;;;21.10;75.50;;;;;;5050378;28;1293;-68
2023/06/19 10:35:16;;;;;;;;;;;21.00;75.80;;;;;;5048883;28;1260;-68
2023/06/19 10:37:41;;;;;;;;;;;21.00;75.60;;;;;;5045191;28;1951;-68
2023/06/19 10:40:09;;;;;;;;;;;21.00;75.50;;;;;;5048262;28;824;-68
2023/06/19 10:42:38;;;;;;;;;;;21.00;75.40;;;;;;5042903;28;2422;-68
2023/06/19 10:45:04;;;;;;;;;;;21.00;75.40;;;;;;5046196;28;1438;-67
2023/06/19 10:47:29;;;;;;;;;;;21.00;75.40;;;;;;5047450;28;915;-67
2023/06/19 10:49:55;;;;;;;;;;;21.00;75.40;;;;;;5048805;28;1042;-68
2023/06/19 10:52:20;;;;;;;;;;;21.00;75.50;;;;;;5046696;28;908;-67
2023/06/19 10:54:46;;;;;;;;;;;21.00;75.50;;;;;;5048762;28;1263;-67
2023/06/19 10:57:13;;;;;;;;;;;21.00;75.50;;;;;;5045356;28;1902;-67
2023/06/19 10:59:39;;;;;;;;;;;21.00;75.40;;;;;;5050486;28;1269;-67
2023/06/19 11:02:05;;;;;;;;;;;21.00;75.50;;;;;;5049737;28;799;-67
2023/06/19 11:04:31;;;;;;;;;;;21.00;75.50;;;;;;5048065;28;1237;-68
2023/06/19 11:06:56;;;;;;;;;;;21.00;75.50;;;;;;5044985;28;880;-68
2023/06/19 11:09:22;;;;;;;;;;;21.00;75.50;;;;;;5047368;28;878;-68
2023/06/19 11:11:47;;;;;;;;;;;21.00;75.50;;;;;;5048549;28;880;-67
2023/06/19 11:14:13;;;;;;;;;;;21.00;75.60;;;;;;5046680;28;1229;-68
2023/06/19 11:16:40;;;;;;;;;;;21.00;75.60;;;;;;5048598;28;1902;-67
2023/06/19 11:19:09;;;;;;;;;;;21.00;75.90;;;;;;5047713;28;1323;-67
2023/06/19 11:21:38;;;;;;;;;;;21.00;76.40;;;;;;5047868;28;817;-67
2023/06/19 11:24:10;;;;;;;;;;;21.00;76.50;;;;;;5046420;28;2115;-68
2023/06/19 11:26:37;;;;;;;;;;;21.10;76.60;;;;;;5047868;28;1334;-67
2023/06/19 11:29:12;;;;;;;;;;;21.00;76.20;;;;;;5049183;28;1417;-67
2023/06/19 11:31:38;;;;;;;;;;;21.00;76.10;;;;;;5049351;28;1034;-67
2023/06/19 11:34:04;;;;;;;;;;;21.00;76.00;;;;;;5049139;28;1351;-68
2023/06/19 11:36:29;;;;;;;;;;;21.10;76.10;;;;;;5062361;28;1195;-67
2023/06/19 11:38:55;;;;;;;;;;;21.00;75.90;;;;;;5049852;28;1890;-67
2023/06/19 11:41:27;;;;;;;;;;;21.00;75.90;;;;;;5046897;28;1254;-67
2023/06/19 11:43:59;;;;;;;;;;;21.00;75.80;;;;;;5047555;28;845;-68
2023/06/19 11:46:28;;;;;;;;;;;21.00;76.00;;;;;;5048531;28;1383;-68
2023/06/19 11:48:53;;;;;;;;;;;21.00;76.10;;;;;;5049470;28;827;-67
2023/06/19 11:51:19;;;;;;;;;;;21.00;76.10;;;;;;5047350;28;2232;-68
2023/06/19 11:53:44;;;;;;;;;;;21.10;76.20;;;;;;5047026;28;1253;-68
2023/06/19 11:56:09;;;;;;;;;;;21.00;75.90;;;;;;5046378;28;1565;-69
2023/06/19 11:58:35;;;;;;;;;;;21.00;75.90;;;;;;5048140;28;1914;-68
2023/06/19 12:01:00;;;;;;;;;;;21.00;75.80;;;;;;5047083;28;1197;-68
2023/06/19 12:03:26;;;;;;;;;;;21.10;75.80;;;;;;5048348;28;828;-67
2023/06/19 12:05:52;;;;;;;;;;;21.10;76.20;;;;;;5045494;28;1342;-68
2023/06/19 12:08:17;;;;;;;;;;;21.10;75.80;;;;;;5049448;28;899;-68
2023/06/19 12:10:43;;;;;;;;;;;21.00;75.40;;;;;;5047732;28;880;-67
2023/06/19 12:13:08;;;;;;;;;;;21.00;75.90;;;;;;5046162;28;1294;-68
2023/06/19 12:15:34;;;;;;;;;;;21.00;74.90;;;;;;5045949;28;1433;-68
2023/06/19 12:17:59;;;;;;;;;;;21.00;74.70;;;;;;5047813;28;1902;-68
2023/06/19 12:20:25;;;;;;;;;;;21.00;74.40;;;;;;5045905;28;859;-67
2023/06/19 12:22:50;;;;;;;;;;;21.00;74.00;;;;;;5049650;28;854;-68
2023/06/19 12:25:16;;;;;;;;;;;21.00;73.90;;;;;;5043484;28;1354;-67
2023/06/19 12:27:41;;;;;;;;;;;21.00;73.80;;;;;;5046258;28;1465;-68
2023/06/19 12:30:07;;;;;;;;;;;21.00;73.40;;;;;;5037675;28;895;-68
2023/06/19 12:32:33;;;;;;;;;;;21.00;73.40;;;;;;5047914;28;1336;-68
2023/06/19 12:34:58;;;;;;;;;;;21.00;73.20;;;;;;5048245;28;1228;-68
2023/06/19 12:37:24;;;;;;;;;;;21.00;73.10;;;;;;5047956;28;1894;-68
2023/06/19 12:39:50;;;;;;;;;;;21.00;72.90;;;;;;5048224;28;1572;-68
2023/06/19 12:42:15;;;;;;;;;;;21.00;73.00;;;;;;5047881;28;1039;-67
2023/06/19 12:44:41;;;;;;;;;;;21.00;72.80;;;;;;5047458;28;1267;-67
2023/06/19 12:47:06;;;;;;;;;;;21.00;72.80;;;;;;5046171;28;861;-68
2023/06/19 12:49:32;;;;;;;;;;;21.00;72.80;;;;;;5048873;28;815;-68
2023/06/19 12:51:57;;;;;;;;;;;21.10;72.50;;;;;;5046407;28;839;-68
2023/06/19 12:54:23;;;;;;;;;;;21.10;72.10;;;;;;5047069;28;1274;-69
2023/06/19 12:56:48;;;;;;;;;;;21.10;72.20;;;;;;5046501;28;1906;-68
2023/06/19 12:59:14;;;;;;;;;;;21.10;72.30;;;;;;5052405;28;797;-66
2023/06/19 13:01:40;;;;;;;;;;;21.10;72.30;;;;;;5051664;28;863;-66
2023/06/19 13:04:05;;;;;;;;;;;21.10;72.20;;;;;;5052578;28;1239;-67
2023/06/19 13:06:31;;;;;;;;;;;21.10;72.20;;;;;;5052895;28;879;-67
2023/06/19 13:08:57;;;;;;;;;;;21.10;72.20;;;;;;5048781;28;2073;-66
2023/06/19 13:11:22;;;;;;;;;;;21.10;72.20;;;;;;5048890;28;1442;-66
2023/06/19 13:13:48;;;;;;;;;;;21.10;72.30;;;;;;5051841;28;1362;-67
2023/06/19 13:16:15;;;;;;;;;;;21.10;72.30;;;;;;5045886;28;1271;-66
2023/06/19 13:18:41;;;;;;;;;;;21.10;72.40;;;;;;5052279;28;1965;-66
2023/06/19 13:21:07;;;;;;;;;;;21.10;72.50;;;;;;5049439;28;856;-66
2023/06/19 13:23:32;;;;;;;;;;;21.10;72.60;;;;;;5050293;28;1247;-66
2023/06/19 13:25:57;;;;;;;;;;;21.10;72.70;;;;;;5049710;28;1283;-65
2023/06/19 13:28:23;;;;;;;;;;;21.10;73.40;;;;;;5050924;28;1376;-66
2023/06/19 13:30:49;;;;;;;;;;;21.10;72.70;;;;;;5049025;28;823;-66
2023/06/19 13:33:16;;;;;;;;;;;21.10;72.60;;;;;;5049713;28;874;-66
2023/06/19 13:35:41;;;;;;;;;;;21.10;72.60;;;;;;5048677;28;1297;-66
2023/06/19 13:38:07;;;;;;;;;;;21.10;72.60;;;;;;5052026;28;1922;-66
2023/06/19 13:40:32;;;;;;;;;;;21.10;72.50;;;;;;5050930;28;1217;-66
2023/06/19 13:42:59;;;;;;;;;;;21.10;72.60;;;;;;5045496;28;1169;-67
2023/06/19 13:45:24;;;;;;;;;;;21.20;72.40;;;;;;5048512;28;1260;-66
2023/06/19 13:47:50;;;;;;;;;;;21.20;71.90;;;;;;5046243;28;1228;-66
2023/06/19 13:50:18;;;;;;;;;;;21.20;71.40;;;;;;5050250;28;1511;-66
2023/06/19 13:52:46;;;;;;;;;;;21.20;71.20;;;;;;5051002;28;828;-67
2023/06/19 13:55:14;;;;;;;;;;;21.20;71.00;;;;;;5046054;28;1227;-65
2023/06/19 13:57:40;;;;;;;;;;;21.30;71.20;;;;;;5047048;28;1902;-67
2023/06/19 14:00:07;;;;;;;;;;;21.30;71.00;;;;;;5049043;28;824;-66
2023/06/19 14:02:32;;;;;;;;;;;21.30;70.70;;;;;;5048548;28;899;-66
2023/06/19 14:04:58;;;;;;;;;;;21.30;70.50;;;;;;5051808;28;1319;-66
2023/06/19 14:07:23;;;;;;;;;;;21.30;70.80;;;;;;5052077;28;851;-66
2023/06/19 14:09:49;;;;;;;;;;;21.30;71.10;;;;;;5045384;28;815;-66
2023/06/19 14:12:15;;;;;;;;;;;21.30;70.70;;;;;;5047083;28;919;-66
2023/06/19 14:14:40;;;;;;;;;;;21.30;70.20;;;;;;5046051;28;1343;-66
2023/06/19 14:17:06;;;;;;;;;;;21.40;69.90;;;;;;5049459;28;2006;-66
2023/06/19 14:19:31;;;;;;;;;;;21.40;69.60;;;;;;5050244;28;784;-67
2023/06/19 14:21:57;;;;;;;;;;;21.40;69.60;;;;;;5049046;28;970;-66
2023/06/19 14:24:24;;;;;;;;;;;21.40;70.10;;;;;;5050309;28;1224;-66
2023/06/19 14:26:49;;;;;;;;;;;21.40;70.00;;;;;;5050319;28;848;-66
2023/06/19 14:29:18;;;;;;;;;;;21.40;69.70;;;;;;5048562;28;1549;-66